sensor_id;sensor_type;location;lat;lon;timestamp;temperature;humidity
8342;DHT22;4208;49.406;10.788;2022-09-03T00:00:15;14.30;87.80
8342;DHT22;4208;49.406;10.788;2022-09-03T00:02:47;14.30;87.90
8342;DHT22;4208;49.406;10.788;2022-09-03T00:05:23;14.20;88.00
8342;DHT22;4208;49.406;10.788;2022-09-03T00:07:58;14.20;88.00
8342;DHT22;4208;49.406;10.788;2022-09-03T00:10:37;14.20;88.40
8342;DHT22;4208;49.406;10.788;2022-09-03T00:13:15;14.10;88.60
8342;DHT22;4208;49.406;10.788;2022-09-03T00:15:45;14.10;88.60
8342;DHT22;4208;49.406;10.788;2022-09-03T00:18:16;14.00;88.50
8342;DHT22;4208;49.406;10.788;2022-09-03T00:20:51;14.00;88.30
8342;DHT22;4208;49.406;10.788;2022-09-03T00:23:26;14.00;88.60
8342;DHT22;4208;49.406;10.788;2022-09-03T00:25:59;13.90;88.70
8342;DHT22;4208;49.406;10.788;2022-09-03T00:28:35;13.90;88.80
8342;DHT22;4208;49.406;10.788;2022-09-03T00:31:11;13.80;88.90
8342;DHT22;4208;49.406;10.788;2022-09-03T00:33:46;13.80;89.40
8342;DHT22;4208;49.406;10.788;2022-09-03T00:36:19;13.70;89.30
8342;DHT22;4208;49.406;10.788;2022-09-03T00:38:48;13.70;89.50
8342;DHT22;4208;49.406;10.788;2022-09-03T00:41:27;13.70;89.60
8342;DHT22;4208;49.406;10.788;2022-09-03T00:47:09;13.60;90.00
8342;DHT22;4208;49.406;10.788;2022-09-03T00:49:49;13.60;90.10
8342;DHT22;4208;49.406;10.788;2022-09-03T00:52:31;13.50;90.10
8342;DHT22;4208;49.406;10.788;2022-09-03T00:55:09;13.50;90.10
8342;DHT22;4208;49.406;10.788;2022-09-03T00:57:50;13.50;90.20
8342;DHT22;4208;49.406;10.788;2022-09-03T01:00:20;13.50;90.40
8342;DHT22;4208;49.406;10.788;2022-09-03T01:02:57;13.40;90.40
8342;DHT22;4208;49.406;10.788;2022-09-03T01:05:38;13.40;90.40
8342;DHT22;4208;49.406;10.788;2022-09-03T01:08:28;13.40;90.40
8342;DHT22;4208;49.406;10.788;2022-09-03T01:11:13;13.40;90.30
8342;DHT22;4208;49.406;10.788;2022-09-03T01:13:55;13.30;90.40
8342;DHT22;4208;49.406;10.788;2022-09-03T01:16:27;13.30;90.50
8342;DHT22;4208;49.406;10.788;2022-09-03T01:19:05;13.20;90.50
8342;DHT22;4208;49.406;10.788;2022-09-03T01:21:53;13.20;90.40
8342;DHT22;4208;49.406;10.788;2022-09-03T01:24:55;13.20;90.50
8342;DHT22;4208;49.406;10.788;2022-09-03T01:27:38;13.20;90.70
8342;DHT22;4208;49.406;10.788;2022-09-03T01:30:13;13.20;90.70
8342;DHT22;4208;49.406;10.788;2022-09-03T01:32:51;13.10;90.80
8342;DHT22;4208;49.406;10.788;2022-09-03T01:35:26;13.10;90.80
8342;DHT22;4208;49.406;10.788;2022-09-03T01:38:06;13.10;90.90
8342;DHT22;4208;49.406;10.788;2022-09-03T01:40:44;13.00;90.90
8342;DHT22;4208;49.406;10.788;2022-09-03T01:43:27;13.00;90.90
8342;DHT22;4208;49.406;10.788;2022-09-03T01:46:08;13.00;90.90
8342;DHT22;4208;49.406;10.788;2022-09-03T01:48:46;13.00;90.90
8342;DHT22;4208;49.406;10.788;2022-09-03T01:51:19;12.90;90.90
8342;DHT22;4208;49.406;10.788;2022-09-03T02:00:09;12.80;91.30
8342;DHT22;4208;49.406;10.788;2022-09-03T02:02:42;12.80;91.30
8342;DHT22;4208;49.406;10.788;2022-09-03T02:05:17;12.70;91.30
8342;DHT22;4208;49.406;10.788;2022-09-03T02:07:53;12.70;91.40
8342;DHT22;4208;49.406;10.788;2022-09-03T02:10:26;12.70;91.50
8342;DHT22;4208;49.406;10.788;2022-09-03T02:13:00;12.60;91.60
8342;DHT22;4208;49.406;10.788;2022-09-03T02:15:29;12.60;91.70
8342;DHT22;4208;49.406;10.788;2022-09-03T02:18:08;12.60;91.80
8342;DHT22;4208;49.406;10.788;2022-09-03T02:20:38;12.60;91.80
8342;DHT22;4208;49.406;10.788;2022-09-03T02:23:08;12.50;91.90
8342;DHT22;4208;49.406;10.788;2022-09-03T02:25:38;12.50;91.90
8342;DHT22;4208;49.406;10.788;2022-09-03T02:28:09;12.50;92.00
8342;DHT22;4208;49.406;10.788;2022-09-03T02:30:44;12.50;92.10
8342;DHT22;4208;49.406;10.788;2022-09-03T02:33:15;12.50;92.10
8342;DHT22;4208;49.406;10.788;2022-09-03T02:35:45;12.50;92.10
8342;DHT22;4208;49.406;10.788;2022-09-03T02:38:16;12.50;92.00
8342;DHT22;4208;49.406;10.788;2022-09-03T02:40:45;12.40;92.10
8342;DHT22;4208;49.406;10.788;2022-09-03T02:43:18;12.50;92.20
8342;DHT22;4208;49.406;10.788;2022-09-03T02:45:56;12.40;92.20
8342;DHT22;4208;49.406;10.788;2022-09-03T02:48:28;12.30;92.40
8342;DHT22;4208;49.406;10.788;2022-09-03T02:50:57;12.30;92.40
8342;DHT22;4208;49.406;10.788;2022-09-03T02:53:25;12.30;92.40
8342;DHT22;4208;49.406;10.788;2022-09-03T02:55:58;12.30;92.60
8342;DHT22;4208;49.406;10.788;2022-09-03T02:58:28;12.30;92.50
8342;DHT22;4208;49.406;10.788;2022-09-03T03:00:57;12.30;92.50
8342;DHT22;4208;49.406;10.788;2022-09-03T03:03:28;12.30;92.50
8342;DHT22;4208;49.406;10.788;2022-09-03T03:05:59;12.20;92.50
8342;DHT22;4208;49.406;10.788;2022-09-03T03:08:28;12.20;92.50
8342;DHT22;4208;49.406;10.788;2022-09-03T03:10:59;12.20;92.60
8342;DHT22;4208;49.406;10.788;2022-09-03T03:13:29;12.20;92.60
8342;DHT22;4208;49.406;10.788;2022-09-03T03:15:59;12.20;92.60
8342;DHT22;4208;49.406;10.788;2022-09-03T03:18:30;12.20;92.70
8342;DHT22;4208;49.406;10.788;2022-09-03T03:21:03;12.10;92.80
8342;DHT22;4208;49.406;10.788;2022-09-03T03:23:32;12.10;92.90
8342;DHT22;4208;49.406;10.788;2022-09-03T03:26:02;12.00;92.90
8342;DHT22;4208;49.406;10.788;2022-09-03T03:28:31;12.00;92.90
8342;DHT22;4208;49.406;10.788;2022-09-03T03:31:05;12.00;92.90
8342;DHT22;4208;49.406;10.788;2022-09-03T03:33:36;12.00;92.90
8342;DHT22;4208;49.406;10.788;2022-09-03T03:36:06;12.00;93.00
8342;DHT22;4208;49.406;10.788;2022-09-03T03:38:35;11.90;93.00
8342;DHT22;4208;49.406;10.788;2022-09-03T03:41:08;11.90;93.00
8342;DHT22;4208;49.406;10.788;2022-09-03T03:43:37;11.90;93.20
8342;DHT22;4208;49.406;10.788;2022-09-03T03:46:06;11.90;93.30
8342;DHT22;4208;49.406;10.788;2022-09-03T03:48:38;11.90;93.30
8342;DHT22;4208;49.406;10.788;2022-09-03T03:51:08;11.90;93.60
8342;DHT22;4208;49.406;10.788;2022-09-03T03:53:38;11.90;93.80
8342;DHT22;4208;49.406;10.788;2022-09-03T03:56:08;11.80;94.00
8342;DHT22;4208;49.406;10.788;2022-09-03T03:58:38;11.70;94.00
8342;DHT22;4208;49.406;10.788;2022-09-03T04:01:10;11.70;94.30
8342;DHT22;4208;49.406;10.788;2022-09-03T04:03:42;11.80;94.00
8342;DHT22;4208;49.406;10.788;2022-09-03T04:06:13;11.80;94.00
8342;DHT22;4208;49.406;10.788;2022-09-03T04:08:43;11.80;94.00
8342;DHT22;4208;49.406;10.788;2022-09-03T04:11:15;11.80;94.10
8342;DHT22;4208;49.406;10.788;2022-09-03T04:13:45;11.70;94.10
8342;DHT22;4208;49.406;10.788;2022-09-03T04:16:15;11.70;94.10
8342;DHT22;4208;49.406;10.788;2022-09-03T04:18:46;11.70;94.10
8342;DHT22;4208;49.406;10.788;2022-09-03T04:21:18;11.80;94.10
8342;DHT22;4208;49.406;10.788;2022-09-03T04:23:48;11.80;94.00
8342;DHT22;4208;49.406;10.788;2022-09-03T04:26:19;11.80;94.00
8342;DHT22;4208;49.406;10.788;2022-09-03T04:28:48;11.70;94.00
8342;DHT22;4208;49.406;10.788;2022-09-03T04:31:19;11.70;94.10
8342;DHT22;4208;49.406;10.788;2022-09-03T04:33:50;11.70;94.10
8342;DHT22;4208;49.406;10.788;2022-09-03T04:36:20;11.60;94.10
8342;DHT22;4208;49.406;10.788;2022-09-03T04:38:51;11.60;94.20
8342;DHT22;4208;49.406;10.788;2022-09-03T04:41:22;11.60;94.20
8342;DHT22;4208;49.406;10.788;2022-09-03T04:43:53;11.50;94.40
8342;DHT22;4208;49.406;10.788;2022-09-03T04:46:24;11.50;94.40
8342;DHT22;4208;49.406;10.788;2022-09-03T04:48:55;11.50;94.50
8342;DHT22;4208;49.406;10.788;2022-09-03T04:51:25;11.50;94.50
8342;DHT22;4208;49.406;10.788;2022-09-03T04:53:56;11.60;94.50
8342;DHT22;4208;49.406;10.788;2022-09-03T04:56:27;11.50;94.50
8342;DHT22;4208;49.406;10.788;2022-09-03T04:58:57;11.50;94.50
8342;DHT22;4208;49.406;10.788;2022-09-03T05:01:29;11.60;94.50
8342;DHT22;4208;49.406;10.788;2022-09-03T05:04:00;11.60;94.50
8342;DHT22;4208;49.406;10.788;2022-09-03T05:06:30;11.60;94.60
8342;DHT22;4208;49.406;10.788;2022-09-03T05:08:59;11.50;94.60
8342;DHT22;4208;49.406;10.788;2022-09-03T05:11:28;11.60;94.60
8342;DHT22;4208;49.406;10.788;2022-09-03T05:13:58;11.60;94.70
8342;DHT22;4208;49.406;10.788;2022-09-03T05:16:28;11.60;94.70
8342;DHT22;4208;49.406;10.788;2022-09-03T05:18:59;11.60;94.80
8342;DHT22;4208;49.406;10.788;2022-09-03T05:21:33;11.50;95.10
8342;DHT22;4208;49.406;10.788;2022-09-03T05:24:03;11.60;94.90
8342;DHT22;4208;49.406;10.788;2022-09-03T05:26:35;11.50;94.90
8342;DHT22;4208;49.406;10.788;2022-09-03T05:29:06;11.60;94.90
8342;DHT22;4208;49.406;10.788;2022-09-03T05:31:36;11.60;95.10
8342;DHT22;4208;49.406;10.788;2022-09-03T05:34:07;11.60;95.00
8342;DHT22;4208;49.406;10.788;2022-09-03T05:36:42;11.60;95.00
8342;DHT22;4208;49.406;10.788;2022-09-03T05:39:15;11.60;95.20
8342;DHT22;4208;49.406;10.788;2022-09-03T05:41:44;11.60;95.30
8342;DHT22;4208;49.406;10.788;2022-09-03T05:44:12;11.70;95.40
8342;DHT22;4208;49.406;10.788;2022-09-03T05:46:41;11.80;95.50
8342;DHT22;4208;49.406;10.788;2022-09-03T05:49:11;11.80;95.60
8342;DHT22;4208;49.406;10.788;2022-09-03T05:51:40;11.90;95.80
8342;DHT22;4208;49.406;10.788;2022-09-03T05:54:10;11.90;96.00
8342;DHT22;4208;49.406;10.788;2022-09-03T05:56:39;12.10;96.30
8342;DHT22;4208;49.406;10.788;2022-09-03T05:59:09;12.10;96.30
8342;DHT22;4208;49.406;10.788;2022-09-03T06:01:41;12.20;96.20
8342;DHT22;4208;49.406;10.788;2022-09-03T06:04:19;12.20;96.10
8342;DHT22;4208;49.406;10.788;2022-09-03T06:06:48;12.30;96.20
8342;DHT22;4208;49.406;10.788;2022-09-03T06:09:18;12.30;96.20
8342;DHT22;4208;49.406;10.788;2022-09-03T06:11:50;12.40;96.10
8342;DHT22;4208;49.406;10.788;2022-09-03T06:14:20;12.50;96.20
8342;DHT22;4208;49.406;10.788;2022-09-03T06:16:49;12.60;96.30
8342;DHT22;4208;49.406;10.788;2022-09-03T06:19:21;12.60;96.30
8342;DHT22;4208;49.406;10.788;2022-09-03T06:21:49;12.60;96.40
8342;DHT22;4208;49.406;10.788;2022-09-03T06:24:19;12.70;96.60
8342;DHT22;4208;49.406;10.788;2022-09-03T06:26:52;12.70;96.70
8342;DHT22;4208;49.406;10.788;2022-09-03T06:29:21;12.80;96.70
8342;DHT22;4208;49.406;10.788;2022-09-03T06:31:50;12.90;96.70
8342;DHT22;4208;49.406;10.788;2022-09-03T06:34:20;13.00;96.80
8342;DHT22;4208;49.406;10.788;2022-09-03T06:36:51;13.10;96.70
8342;DHT22;4208;49.406;10.788;2022-09-03T06:39:21;13.30;96.90
8342;DHT22;4208;49.406;10.788;2022-09-03T06:41:51;13.40;96.90
8342;DHT22;4208;49.406;10.788;2022-09-03T06:44:26;13.60;96.70
8342;DHT22;4208;49.406;10.788;2022-09-03T06:46:55;13.70;96.40
8342;DHT22;4208;49.406;10.788;2022-09-03T06:49:29;13.80;96.50
8342;DHT22;4208;49.406;10.788;2022-09-03T06:51:58;13.90;96.50
8342;DHT22;4208;49.406;10.788;2022-09-03T06:54:26;14.20;96.50
8342;DHT22;4208;49.406;10.788;2022-09-03T06:56:55;14.30;96.10
8342;DHT22;4208;49.406;10.788;2022-09-03T06:59:25;14.50;95.80
8342;DHT22;4208;49.406;10.788;2022-09-03T07:01:54;14.60;95.60
8342;DHT22;4208;49.406;10.788;2022-09-03T07:04:25;14.70;96.00
8342;DHT22;4208;49.406;10.788;2022-09-03T07:06:56;14.70;95.70
8342;DHT22;4208;49.406;10.788;2022-09-03T07:09:25;14.80;95.40
8342;DHT22;4208;49.406;10.788;2022-09-03T07:11:54;15.00;95.40
8342;DHT22;4208;49.406;10.788;2022-09-03T07:14:23;15.10;95.50
8342;DHT22;4208;49.406;10.788;2022-09-03T07:16:53;15.30;95.20
8342;DHT22;4208;49.406;10.788;2022-09-03T07:19:22;15.50;94.40
8342;DHT22;4208;49.406;10.788;2022-09-03T07:21:51;15.70;94.70
8342;DHT22;4208;49.406;10.788;2022-09-03T07:24:21;16.20;92.10
8342;DHT22;4208;49.406;10.788;2022-09-03T07:26:50;16.40;91.50
8342;DHT22;4208;49.406;10.788;2022-09-03T07:29:18;16.60;90.60
8342;DHT22;4208;49.406;10.788;2022-09-03T07:31:49;16.60;89.80
8342;DHT22;4208;49.406;10.788;2022-09-03T07:34:20;16.70;90.10
8342;DHT22;4208;49.406;10.788;2022-09-03T07:36:53;16.80;89.40
8342;DHT22;4208;49.406;10.788;2022-09-03T07:39:23;16.80;89.50
8342;DHT22;4208;49.406;10.788;2022-09-03T07:41:52;16.90;89.20
8342;DHT22;4208;49.406;10.788;2022-09-03T07:44:21;17.20;88.70
8342;DHT22;4208;49.406;10.788;2022-09-03T07:46:50;17.50;87.70
8342;DHT22;4208;49.406;10.788;2022-09-03T07:49:20;17.60;88.20
8342;DHT22;4208;49.406;10.788;2022-09-03T07:51:49;17.80;86.20
8342;DHT22;4208;49.406;10.788;2022-09-03T07:54:20;17.90;86.30
8342;DHT22;4208;49.406;10.788;2022-09-03T07:56:51;17.90;84.90
8342;DHT22;4208;49.406;10.788;2022-09-03T07:59:22;17.90;84.90
8342;DHT22;4208;49.406;10.788;2022-09-03T08:01:52;17.70;84.90
8342;DHT22;4208;49.406;10.788;2022-09-03T08:04:21;17.60;85.80
8342;DHT22;4208;49.406;10.788;2022-09-03T08:06:49;17.50;85.60
8342;DHT22;4208;49.406;10.788;2022-09-03T08:09:22;17.50;86.00
8342;DHT22;4208;49.406;10.788;2022-09-03T08:11:52;17.50;85.80
8342;DHT22;4208;49.406;10.788;2022-09-03T08:14:21;17.40;86.50
8342;DHT22;4208;49.406;10.788;2022-09-03T08:16:50;17.50;86.30
8342;DHT22;4208;49.406;10.788;2022-09-03T08:19:19;17.50;86.30
8342;DHT22;4208;49.406;10.788;2022-09-03T08:21:48;17.50;86.20
8342;DHT22;4208;49.406;10.788;2022-09-03T08:24:17;17.40;85.90
8342;DHT22;4208;49.406;10.788;2022-09-03T08:26:47;17.50;85.90
8342;DHT22;4208;49.406;10.788;2022-09-03T08:29:20;17.50;86.50
8342;DHT22;4208;49.406;10.788;2022-09-03T08:31:49;17.50;85.70
8342;DHT22;4208;49.406;10.788;2022-09-03T08:34:18;17.50;86.20
8342;DHT22;4208;49.406;10.788;2022-09-03T08:36:47;17.60;86.40
8342;DHT22;4208;49.406;10.788;2022-09-03T08:39:16;17.70;86.50
8342;DHT22;4208;49.406;10.788;2022-09-03T08:44:52;17.70;86.30
8342;DHT22;4208;49.406;10.788;2022-09-03T08:47:27;17.70;85.60
8342;DHT22;4208;49.406;10.788;2022-09-03T08:50:00;17.70;86.90
8342;DHT22;4208;49.406;10.788;2022-09-03T08:52:33;17.80;86.20
8342;DHT22;4208;49.406;10.788;2022-09-03T08:55:15;18.00;86.10
8342;DHT22;4208;49.406;10.788;2022-09-03T08:57:47;18.30;85.20
8342;DHT22;4208;49.406;10.788;2022-09-03T09:00:18;18.60;84.70
8342;DHT22;4208;49.406;10.788;2022-09-03T09:06:06;19.10;83.30
8342;DHT22;4208;49.406;10.788;2022-09-03T09:08:43;19.30;82.70
8342;DHT22;4208;49.406;10.788;2022-09-03T09:11:23;19.60;83.40
8342;DHT22;4208;49.406;10.788;2022-09-03T09:13:58;19.80;81.50
8342;DHT22;4208;49.406;10.788;2022-09-03T09:16:37;19.90;80.90
8342;DHT22;4208;49.406;10.788;2022-09-03T09:19:17;20.10;80.10
8342;DHT22;4208;49.406;10.788;2022-09-03T09:21:53;20.30;80.50
8342;DHT22;4208;49.406;10.788;2022-09-03T09:24:25;20.60;80.80
8342;DHT22;4208;49.406;10.788;2022-09-03T09:26:59;20.90;79.40
8342;DHT22;4208;49.406;10.788;2022-09-03T09:29:32;21.20;78.50
8342;DHT22;4208;49.406;10.788;2022-09-03T09:32:03;21.20;78.90
8342;DHT22;4208;49.406;10.788;2022-09-03T09:34:35;21.30;78.70
8342;DHT22;4208;49.406;10.788;2022-09-03T09:37:08;21.40;77.70
8342;DHT22;4208;49.406;10.788;2022-09-03T09:39:40;21.40;78.90
8342;DHT22;4208;49.406;10.788;2022-09-03T09:42:10;21.40;77.50
8342;DHT22;4208;49.406;10.788;2022-09-03T09:44:41;21.40;78.10
8342;DHT22;4208;49.406;10.788;2022-09-03T09:47:20;21.40;79.00
8342;DHT22;4208;49.406;10.788;2022-09-03T09:49:54;21.40;78.40
8342;DHT22;4208;49.406;10.788;2022-09-03T09:52:25;21.50;79.40
8342;DHT22;4208;49.406;10.788;2022-09-03T09:55:06;21.50;79.70
8342;DHT22;4208;49.406;10.788;2022-09-03T09:57:35;21.60;78.70
8342;DHT22;4208;49.406;10.788;2022-09-03T10:00:08;21.80;78.80
8342;DHT22;4208;49.406;10.788;2022-09-03T10:02:47;22.00;79.20
8342;DHT22;4208;49.406;10.788;2022-09-03T10:05:20;22.20;76.70
8342;DHT22;4208;49.406;10.788;2022-09-03T10:07:58;22.40;76.60
8342;DHT22;4208;49.406;10.788;2022-09-03T10:10:28;22.70;79.50
8342;DHT22;4208;49.406;10.788;2022-09-03T10:13:06;23.00;76.00
8342;DHT22;4208;49.406;10.788;2022-09-03T10:15:42;23.00;76.00
8342;DHT22;4208;49.406;10.788;2022-09-03T10:18:18;23.10;75.50
8342;DHT22;4208;49.406;10.788;2022-09-03T10:20:59;23.00;74.70
8342;DHT22;4208;49.406;10.788;2022-09-03T10:23:38;22.90;75.70
8342;DHT22;4208;49.406;10.788;2022-09-03T10:26:12;22.90;76.00
8342;DHT22;4208;49.406;10.788;2022-09-03T10:28:42;22.90;76.00
8342;DHT22;4208;49.406;10.788;2022-09-03T10:31:28;22.80;77.00
8342;DHT22;4208;49.406;10.788;2022-09-03T10:34:08;22.90;75.50
8342;DHT22;4208;49.406;10.788;2022-09-03T10:36:48;22.90;75.40
8342;DHT22;4208;49.406;10.788;2022-09-03T10:39:22;22.80;75.70
8342;DHT22;4208;49.406;10.788;2022-09-03T10:42:04;22.80;76.80
8342;DHT22;4208;49.406;10.788;2022-09-03T10:44:57;22.70;77.20
8342;DHT22;4208;49.406;10.788;2022-09-03T10:47:41;22.60;76.00
8342;DHT22;4208;49.406;10.788;2022-09-03T10:50:16;22.50;76.80
8342;DHT22;4208;49.406;10.788;2022-09-03T10:53:00;22.50;76.50
8342;DHT22;4208;49.406;10.788;2022-09-03T10:55:41;22.50;77.20
8342;DHT22;4208;49.406;10.788;2022-09-03T10:58:39;22.50;77.30
8342;DHT22;4208;49.406;10.788;2022-09-03T11:01:17;22.70;78.40
8342;DHT22;4208;49.406;10.788;2022-09-03T11:03:55;22.70;78.10
8342;DHT22;4208;49.406;10.788;2022-09-03T11:06:28;22.90;78.30
8342;DHT22;4208;49.406;10.788;2022-09-03T11:09:00;23.30;76.70
8342;DHT22;4208;49.406;10.788;2022-09-03T11:11:35;23.60;77.10
8342;DHT22;4208;49.406;10.788;2022-09-03T11:14:07;24.00;76.50
8342;DHT22;4208;49.406;10.788;2022-09-03T11:16:40;24.20;76.10
8342;DHT22;4208;49.406;10.788;2022-09-03T11:19:15;24.10;77.20
8342;DHT22;4208;49.406;10.788;2022-09-03T11:21:47;24.30;76.90
8342;DHT22;4208;49.406;10.788;2022-09-03T11:24:20;24.70;74.60
8342;DHT22;4208;49.406;10.788;2022-09-03T11:26:54;25.10;74.50
8342;DHT22;4208;49.406;10.788;2022-09-03T11:29:31;25.50;73.80
8342;DHT22;4208;49.406;10.788;2022-09-03T11:32:07;25.60;73.10
8342;DHT22;4208;49.406;10.788;2022-09-03T11:34:46;25.50;72.50
8342;DHT22;4208;49.406;10.788;2022-09-03T11:37:19;25.70;74.60
8342;DHT22;4208;49.406;10.788;2022-09-03T11:39:57;26.00;72.80
8342;DHT22;4208;49.406;10.788;2022-09-03T11:42:29;26.30;72.40
8342;DHT22;4208;49.406;10.788;2022-09-03T11:45:11;26.60;71.50
8342;DHT22;4208;49.406;10.788;2022-09-03T11:47:42;26.80;71.80
8342;DHT22;4208;49.406;10.788;2022-09-03T11:50:19;26.90;69.70
8342;DHT22;4208;49.406;10.788;2022-09-03T11:52:51;27.00;71.10
8342;DHT22;4208;49.406;10.788;2022-09-03T11:55:25;27.30;70.70
8342;DHT22;4208;49.406;10.788;2022-09-03T11:58:11;27.60;69.10
8342;DHT22;4208;49.406;10.788;2022-09-03T12:00:40;27.80;69.30
8342;DHT22;4208;49.406;10.788;2022-09-03T12:03:13;27.70;68.30
8342;DHT22;4208;49.406;10.788;2022-09-03T12:06:01;27.40;69.30
8342;DHT22;4208;49.406;10.788;2022-09-03T12:08:49;27.40;69.70
8342;DHT22;4208;49.406;10.788;2022-09-03T12:11:32;27.30;70.00
8342;DHT22;4208;49.406;10.788;2022-09-03T12:14:09;27.30;70.80
8342;DHT22;4208;49.406;10.788;2022-09-03T12:16:54;27.20;70.70
8342;DHT22;4208;49.406;10.788;2022-09-03T12:19:31;26.90;70.90
8342;DHT22;4208;49.406;10.788;2022-09-03T12:22:03;26.80;71.70
8342;DHT22;4208;49.406;10.788;2022-09-03T12:24:34;26.40;72.00
8342;DHT22;4208;49.406;10.788;2022-09-03T12:27:05;26.10;72.50
8342;DHT22;4208;49.406;10.788;2022-09-03T12:29:37;25.80;73.60
8342;DHT22;4208;49.406;10.788;2022-09-03T12:32:08;25.40;74.10
8342;DHT22;4208;49.406;10.788;2022-09-03T12:34:39;25.30;74.50
8342;DHT22;4208;49.406;10.788;2022-09-03T12:37:18;25.30;74.40
8342;DHT22;4208;49.406;10.788;2022-09-03T12:40:18;25.50;74.40
8342;DHT22;4208;49.406;10.788;2022-09-03T12:42:48;25.80;74.90
8342;DHT22;4208;49.406;10.788;2022-09-03T12:45:20;25.80;73.90
8342;DHT22;4208;49.406;10.788;2022-09-03T12:47:50;25.80;73.80
8342;DHT22;4208;49.406;10.788;2022-09-03T12:50:21;25.80;73.40
8342;DHT22;4208;49.406;10.788;2022-09-03T12:52:52;25.60;73.70
8342;DHT22;4208;49.406;10.788;2022-09-03T12:55:28;25.30;74.30
8342;DHT22;4208;49.406;10.788;2022-09-03T12:58:05;25.00;74.80
8342;DHT22;4208;49.406;10.788;2022-09-03T13:00:43;24.80;75.50
8342;DHT22;4208;49.406;10.788;2022-09-03T13:03:17;24.60;76.10
8342;DHT22;4208;49.406;10.788;2022-09-03T13:05:50;24.50;76.50
8342;DHT22;4208;49.406;10.788;2022-09-03T13:08:22;24.40;77.20
8342;DHT22;4208;49.406;10.788;2022-09-03T13:10:55;24.30;77.40
8342;DHT22;4208;49.406;10.788;2022-09-03T13:13:27;24.30;77.10
8342;DHT22;4208;49.406;10.788;2022-09-03T13:16:10;24.30;77.10
8342;DHT22;4208;49.406;10.788;2022-09-03T13:18:46;24.20;77.60
8342;DHT22;4208;49.406;10.788;2022-09-03T13:21:23;24.10;77.50
8342;DHT22;4208;49.406;10.788;2022-09-03T13:24:05;24.00;77.90
8342;DHT22;4208;49.406;10.788;2022-09-03T13:26:46;23.90;78.00
8342;DHT22;4208;49.406;10.788;2022-09-03T13:29:31;23.80;78.50
8342;DHT22;4208;49.406;10.788;2022-09-03T13:32:14;23.80;78.40
8342;DHT22;4208;49.406;10.788;2022-09-03T13:34:54;23.80;78.70
8342;DHT22;4208;49.406;10.788;2022-09-03T13:37:27;23.60;79.30
8342;DHT22;4208;49.406;10.788;2022-09-03T13:39:59;23.60;79.20
8342;DHT22;4208;49.406;10.788;2022-09-03T13:42:35;23.60;79.30
8342;DHT22;4208;49.406;10.788;2022-09-03T13:45:19;23.60;79.50
8342;DHT22;4208;49.406;10.788;2022-09-03T13:47:55;23.50;79.70
8342;DHT22;4208;49.406;10.788;2022-09-03T13:50:46;23.40;79.50
8342;DHT22;4208;49.406;10.788;2022-09-03T13:53:19;23.40;80.20
8342;DHT22;4208;49.406;10.788;2022-09-03T13:55:55;23.40;80.30
8342;DHT22;4208;49.406;10.788;2022-09-03T13:58:36;23.30;79.80
8342;DHT22;4208;49.406;10.788;2022-09-03T14:01:14;23.30;80.70
8342;DHT22;4208;49.406;10.788;2022-09-03T14:03:49;23.30;80.30
8342;DHT22;4208;49.406;10.788;2022-09-03T14:06:31;23.20;80.20
8342;DHT22;4208;49.406;10.788;2022-09-03T14:09:11;23.20;81.20
8342;DHT22;4208;49.406;10.788;2022-09-03T14:11:51;23.20;80.60
8342;DHT22;4208;49.406;10.788;2022-09-03T14:14:36;23.20;81.10
8342;DHT22;4208;49.406;10.788;2022-09-03T14:17:12;23.20;81.60
8342;DHT22;4208;49.406;10.788;2022-09-03T14:19:47;23.20;82.10
8342;DHT22;4208;49.406;10.788;2022-09-03T14:22:22;23.20;81.80
8342;DHT22;4208;49.406;10.788;2022-09-03T14:24:56;23.20;81.50
8342;DHT22;4208;49.406;10.788;2022-09-03T14:27:29;23.10;81.90
8342;DHT22;4208;49.406;10.788;2022-09-03T14:30:00;23.00;81.60
8342;DHT22;4208;49.406;10.788;2022-09-03T14:32:34;22.90;82.00
8342;DHT22;4208;49.406;10.788;2022-09-03T14:35:27;22.80;82.40
8342;DHT22;4208;49.406;10.788;2022-09-03T14:38:22;22.80;83.80
8342;DHT22;4208;49.406;10.788;2022-09-03T14:41:02;22.70;83.60
8342;DHT22;4208;49.406;10.788;2022-09-03T14:43:52;22.60;84.30
8342;DHT22;4208;49.406;10.788;2022-09-03T14:46:42;22.60;85.40
8342;DHT22;4208;49.406;10.788;2022-09-03T14:49:31;22.50;86.10
8342;DHT22;4208;49.406;10.788;2022-09-03T14:52:15;22.50;86.40
8342;DHT22;4208;49.406;10.788;2022-09-03T14:54:59;22.30;86.40
8342;DHT22;4208;49.406;10.788;2022-09-03T14:57:52;22.20;86.10
8342;DHT22;4208;49.406;10.788;2022-09-03T15:00:32;22.20;86.00
8342;DHT22;4208;49.406;10.788;2022-09-03T15:03:18;22.10;86.50
8342;DHT22;4208;49.406;10.788;2022-09-03T15:06:06;21.90;86.90
8342;DHT22;4208;49.406;10.788;2022-09-03T15:08:53;21.80;87.10
8342;DHT22;4208;49.406;10.788;2022-09-03T15:11:27;21.80;87.80
8342;DHT22;4208;49.406;10.788;2022-09-03T15:14:05;21.80;89.00
8342;DHT22;4208;49.406;10.788;2022-09-03T15:16:46;21.70;89.60
8342;DHT22;4208;49.406;10.788;2022-09-03T15:19:43;21.50;88.90
8342;DHT22;4208;49.406;10.788;2022-09-03T15:22:26;21.40;89.20
8342;DHT22;4208;49.406;10.788;2022-09-03T15:25:09;21.30;89.80
8342;DHT22;4208;49.406;10.788;2022-09-03T15:28:00;21.20;90.00
8342;DHT22;4208;49.406;10.788;2022-09-03T15:30:35;21.10;90.10
8342;DHT22;4208;49.406;10.788;2022-09-03T15:33:18;21.00;90.30
8342;DHT22;4208;49.406;10.788;2022-09-03T15:36:12;20.90;90.50
8342;DHT22;4208;49.406;10.788;2022-09-03T15:38:49;20.80;90.60
8342;DHT22;4208;49.406;10.788;2022-09-03T15:41:32;20.50;90.90
8342;DHT22;4208;49.406;10.788;2022-09-03T15:44:06;20.20;91.20
8342;DHT22;4208;49.406;10.788;2022-09-03T15:46:51;20.20;91.30
8342;DHT22;4208;49.406;10.788;2022-09-03T15:49:29;20.10;91.80
8342;DHT22;4208;49.406;10.788;2022-09-03T15:52:08;20.10;92.60
8342;DHT22;4208;49.406;10.788;2022-09-03T15:54:46;20.00;93.40
8342;DHT22;4208;49.406;10.788;2022-09-03T15:57:20;19.90;94.00
8342;DHT22;4208;49.406;10.788;2022-09-03T15:59:53;19.80;95.20
8342;DHT22;4208;49.406;10.788;2022-09-03T16:02:29;19.60;95.60
8342;DHT22;4208;49.406;10.788;2022-09-03T16:05:06;19.50;96.90
8342;DHT22;4208;49.406;10.788;2022-09-03T16:08:02;19.40;97.60
8342;DHT22;4208;49.406;10.788;2022-09-03T16:10:38;19.20;98.60
8342;DHT22;4208;49.406;10.788;2022-09-03T16:13:23;19.10;99.10
8342;DHT22;4208;49.406;10.788;2022-09-03T16:15:59;19.00;99.50
8342;DHT22;4208;49.406;10.788;2022-09-03T16:18:32;18.90;99.90
8342;DHT22;4208;49.406;10.788;2022-09-03T16:21:06;18.90;99.90
8342;DHT22;4208;49.406;10.788;2022-09-03T16:23:40;18.90;99.90
8342;DHT22;4208;49.406;10.788;2022-09-03T16:26:17;18.80;99.90
8342;DHT22;4208;49.406;10.788;2022-09-03T16:28:51;18.80;99.90
8342;DHT22;4208;49.406;10.788;2022-09-03T16:31:33;18.80;99.90
8342;DHT22;4208;49.406;10.788;2022-09-03T16:34:12;18.80;99.90
8342;DHT22;4208;49.406;10.788;2022-09-03T16:36:51;18.90;99.90
8342;DHT22;4208;49.406;10.788;2022-09-03T16:39:35;18.70;99.90
8342;DHT22;4208;49.406;10.788;2022-09-03T16:42:13;18.60;99.90
8342;DHT22;4208;49.406;10.788;2022-09-03T16:44:57;18.60;99.90
8342;DHT22;4208;49.406;10.788;2022-09-03T16:47:36;18.50;99.90